ROTAER D-AMDT 41/19 Ver Mudanças

TARAUACA ( SBTK ) / TARAUACÁ, AC 08 09 17S/070 46 58W
AD PUB 2SE UTC-5 197 (646)

14 - ( 1130x14 ASPH 5700kg/0.5MPa ) - 32

SBAZ (CINDACTA 4)

RMK -

OBSTÁCULO DE AERÓDROMO
  1. OBST (torre metálica) NEG LGTD COORD 08 08 55S/070 46 59W ELEV 944.87FT
  2. OBS torre DIST 750M THR 32 e 550M à direita RCL com ELEV 1034FT e HGT 262FT
INFORMAÇÃO METEOROLÓGICA FORNECIDA
  1. MET ERAA (Estação de Radiodifusão Automática de Aeródromo) FREQ 130.425MHZ HR SER H24
INFORMAÇÃO ADICIONAL
  1. OBS concentração de pássaros (urubus) nas proximidades da THR 32 e na perna do vento da RWY 14
TEMP (0)

Suplementos AIP (0)

NOTAM (0)

Nascer/Por do Sol

10:13

22:45


METAR

220000Z AUTO VRB01KT CAVOK 25/24 Q1008=

TAF

Não disponível


Cartas (0)


Rotas Preferenciais (0)